Time;durP1;ratioP1;P1;durP2;ratioP2;P2;SDS_P1;SDS_P2;PMS_P1;PMS_P2;Temp;Humidity;BMP_temperature;BMP_pressure;BME280_temperature;BME280_humidity;BME280_pressure;Samples;Min_cycle;Max_cycle;Signal;HPM_P1;HPM_P2
2023/03/14 00:00:56;;;;;;;0.40;0.40;;;;;;;5.26;100.00;96611.16;5084604;28;20077;-65
2023/03/14 00:03:21;;;;;;;0.40;0.40;;;;;;;5.22;100.00;96615.66;5084184;28;20033;-66
2023/03/14 00:05:47;;;;;;;0.50;0.50;;;;;;;5.19;100.00;96624.31;5083641;28;20036;-65
2023/03/14 00:08:13;;;;;;;0.40;0.40;;;;;;;5.17;100.00;96628.72;5083437;28;20028;-64
2023/03/14 00:10:38;;;;;;;0.43;0.43;;;;;;;5.19;100.00;96637.19;5083614;28;20113;-64
2023/03/14 00:13:03;;;;;;;0.50;0.50;;;;;;;5.19;100.00;96638.94;5083500;28;20037;-64
2023/03/14 00:15:29;;;;;;;0.50;0.50;;;;;;;5.19;100.00;96639.75;5083477;28;20429;-64
2023/03/14 00:17:54;;;;;;;0.43;0.43;;;;;;;5.15;100.00;96629.69;5083460;28;20116;-66
2023/03/14 00:20:20;;;;;;;0.40;0.40;;;;;;;5.19;100.00;96641.53;5086125;28;20028;-65
2023/03/14 00:22:45;;;;;;;0.68;0.68;;;;;;;5.19;100.00;96642.31;5087197;28;20457;-64
2023/03/14 00:25:12;;;;;;;0.40;0.40;;;;;;;5.24;100.00;96643.88;5087319;28;20040;-65
2023/03/14 00:27:38;;;;;;;0.50;0.50;;;;;;;5.22;100.00;96646.50;5086827;28;20048;-65
2023/03/14 00:30:05;;;;;;;0.40;0.40;;;;;;;5.23;100.00;96644.75;5086883;28;20415;-66
2023/03/14 00:32:30;;;;;;;0.73;0.73;;;;;;;5.23;100.00;96647.31;5087174;28;20041;-66
2023/03/14 00:34:56;;;;;;;0.40;0.40;;;;;;;5.21;100.00;96640.53;5087079;28;20056;-65
2023/03/14 00:37:21;;;;;;;0.60;0.60;;;;;;;5.16;100.00;96645.03;5086785;28;20028;-65
2023/03/14 00:39:47;;;;;;;0.40;0.40;;;;;;;5.12;100.00;96642.69;5086852;28;20064;-65
2023/03/14 00:42:13;;;;;;;0.60;0.60;;;;;;;5.13;100.00;96658.03;5086785;28;20037;-65
2023/03/14 00:44:38;;;;;;;0.50;0.50;;;;;;;5.15;100.00;96656.25;5086806;28;20040;-65
2023/03/14 00:47:04;;;;;;;0.40;0.40;;;;;;;5.13;100.00;96663.19;5086691;28;20097;-65
2023/03/14 00:49:29;;;;;;;0.43;0.43;;;;;;;5.11;100.00;96657.31;5086657;28;20020;-65
2023/03/14 00:51:54;;;;;;;0.40;0.40;;;;;;;5.09;100.00;96677.09;5086534;28;20539;-64
2023/03/14 00:54:21;;;;;;;0.50;0.50;;;;;;;5.07;100.00;96678.91;5086802;28;20036;-64
2023/03/14 00:56:46;;;;;;;0.45;0.45;;;;;;;5.07;100.00;96679.75;5086628;28;20032;-65
2023/03/14 00:59:12;;;;;;;0.50;0.50;;;;;;;5.08;100.00;96685.69;5086396;28;20039;-65
2023/03/14 01:01:38;;;;;;;0.40;0.40;;;;;;;5.01;100.00;96685.19;5086523;28;20456;-65
2023/03/14 01:04:04;;;;;;;0.60;0.60;;;;;;;5.02;100.00;96688.56;5086943;28;20036;-65
2023/03/14 01:06:29;;;;;;;0.40;0.40;;;;;;;5.00;100.00;96698.09;5089269;28;20035;-65
2023/03/14 01:08:56;;;;;;;0.40;0.40;;;;;;;4.96;100.00;96687.97;5086565;28;20066;-65
2023/03/14 01:11:24;;;;;;;0.40;0.40;;;;;;;4.93;100.00;96698.38;5086028;28;20499;-65
2023/03/14 01:13:51;;;;;;;0.50;0.50;;;;;;;4.94;100.00;96701.75;5086372;28;20036;-65
2023/03/14 01:16:18;;;;;;;0.43;0.43;;;;;;;4.88;100.00;96707.19;5086382;28;20028;-66
2023/03/14 01:18:45;;;;;;;0.40;0.40;;;;;;;4.82;100.00;96705.75;5086117;28;20020;-66
2023/03/14 01:21:24;;;;;;;0.40;0.40;;;;;;;4.76;100.00;96713.72;5086107;28;20032;-66
2023/03/14 01:23:51;;;;;;;0.50;0.50;;;;;;;4.73;100.00;96716.44;5086207;28;20032;-66
2023/03/14 01:26:19;;;;;;;0.40;0.40;;;;;;;4.70;100.00;96717.38;5085907;28;20056;-67
2023/03/14 01:28:45;;;;;;;0.40;0.40;;;;;;;4.64;100.00;96728.78;5086006;28;20025;-67
2023/03/14 01:31:11;;;;;;;0.40;0.40;;;;;;;4.59;100.00;96718.69;5085423;28;20040;-67
2023/03/14 01:33:37;;;;;;;0.40;0.40;;;;;;;4.57;100.00;96737.63;5086029;28;20033;-67
2023/03/14 01:36:04;;;;;;;0.50;0.50;;;;;;;4.45;100.00;96721.03;5085835;28;20044;-67
2023/03/14 01:38:33;;;;;;;2.60;2.25;;;;;;;4.49;100.00;96727.69;5085690;28;20032;-66
2023/03/14 01:40:59;;;;;;;0.40;0.40;;;;;;;4.45;100.00;96739.84;5085702;28;20033;-67
2023/03/14 01:43:25;;;;;;;0.40;0.40;;;;;;;4.41;100.00;96743.44;5085471;28;20032;-67
2023/03/14 01:46:06;;;;;;;0.40;0.40;;;;;;;4.43;100.00;96745.94;5085627;28;20032;-68
2023/03/14 01:48:42;;;;;;;0.40;0.40;;;;;;;4.35;100.00;96751.41;5085611;28;20032;-68
2023/03/14 01:51:12;;;;;;;0.40;0.40;;;;;;;4.32;100.00;96746.41;5085160;28;20040;-67
2023/03/14 01:53:39;;;;;;;0.40;0.40;;;;;;;4.25;100.00;96755.28;5085481;28;20033;-67
2023/03/14 01:56:06;;;;;;;0.50;0.50;;;;;;;4.20;100.00;96751.16;5085217;28;20097;-67
2023/03/14 01:58:34;;;;;;;0.40;0.40;;;;;;;4.18;100.00;96754.69;5085085;28;20073;-66
2023/03/14 02:01:01;;;;;;;8.55;3.22;;;;;;;4.19;100.00;96749.47;5085508;28;20040;-66
2023/03/14 02:03:27;;;;;;;0.50;0.50;;;;;;;4.14;100.00;96750.59;5085101;28;20067;-67
2023/03/14 02:05:57;;;;;;;0.50;0.50;;;;;;;4.14;100.00;96748.84;5085209;28;20033;-67
2023/03/14 02:08:24;;;;;;;0.40;0.40;;;;;;;4.07;100.00;96745.69;5085051;28;20059;-67
2023/03/14 02:10:50;;;;;;;0.40;0.40;;;;;;;4.09;100.00;96755.88;5085143;28;20114;-69
2023/03/14 02:13:21;;;;;;;0.40;0.40;;;;;;;4.08;100.00;96756.78;5084843;28;20055;-69
2023/03/14 02:15:47;;;;;;;0.40;0.40;;;;;;;4.08;100.00;96759.34;5084906;28;20028;-68
2023/03/14 02:18:14;;;;;;;0.40;0.40;;;;;;;4.06;100.00;96753.44;5084773;28;20038;-68
2023/03/14 02:21:03;;;;;;;0.50;0.50;;;;;;;4.00;100.00;96756.25;5084935;28;20067;-68
2023/03/14 02:23:40;;;;;;;0.50;0.50;;;;;;;4.00;100.00;96753.69;5084830;28;20599;-68
2023/03/14 02:26:15;;;;;;;0.50;0.50;;;;;;;3.97;100.00;96752.09;5084811;28;20166;-68
2023/03/14 02:28:41;;;;;;;0.40;0.40;;;;;;;3.96;100.00;96758.97;5084693;28;20024;-67
2023/03/14 02:31:08;;;;;;;0.50;0.50;;;;;;;3.96;100.00;96753.00;5084737;28;20032;-68
2023/03/14 02:33:37;;;;;;;0.40;0.40;;;;;;;3.99;100.00;96746.91;5084653;28;20092;-67
2023/03/14 02:36:07;;;;;;;0.40;0.40;;;;;;;3.95;100.00;96746.19;5084567;28;20032;-67
2023/03/14 02:38:39;;;;;;;0.40;0.40;;;;;;;3.95;100.00;96744.47;5083235;28;20063;-67
2023/03/14 02:41:05;;;;;;;0.40;0.40;;;;;;;3.93;100.00;96748.00;5084560;28;20032;-67
2023/03/14 02:43:30;;;;;;;0.47;0.47;;;;;;;3.93;100.00;96753.13;5083414;28;20639;-67
2023/03/14 02:45:56;;;;;;;0.40;0.40;;;;;;;3.90;100.00;96751.50;5084691;28;20032;-67
2023/03/14 02:48:27;;;;;;;0.50;0.50;;;;;;;3.92;100.00;96754.00;5066488;28;20024;-68
2023/03/14 02:51:01;;;;;;;0.60;0.60;;;;;;;3.89;100.00;96752.41;5084243;28;20095;-66
2023/03/14 02:53:29;;;;;;;0.40;0.40;;;;;;;3.89;100.00;96752.41;5084431;28;20069;-67
2023/03/14 02:55:55;;;;;;;0.47;0.47;;;;;;;3.87;100.00;96755.91;5084199;28;20058;-67
2023/03/14 02:58:20;;;;;;;0.50;0.50;;;;;;;3.91;100.00;96758.34;5084222;28;20241;-67
2023/03/14 03:00:46;;;;;;;0.50;0.50;;;;;;;3.92;100.00;96756.56;5084621;28;20092;-68
2023/03/14 03:03:12;;;;;;;0.50;0.50;;;;;;;3.85;100.00;96755.97;5084537;28;20052;-69
2023/03/14 03:05:37;;;;;;;0.50;0.50;;;;;;;3.84;100.00;96764.59;5084296;28;20025;-68
2023/03/14 03:08:03;;;;;;;0.50;0.50;;;;;;;3.77;100.00;96768.31;5084697;28;20039;-69
2023/03/14 03:10:29;;;;;;;0.40;0.40;;;;;;;3.78;100.00;96770.81;5084556;28;20341;-69
2023/03/14 03:12:54;;;;;;;0.40;0.40;;;;;;;3.76;100.00;96767.47;5083804;28;20055;-68
2023/03/14 03:15:20;;;;;;;0.50;0.50;;;;;;;3.77;100.00;96766.56;5083984;28;20032;-69
2023/03/14 03:17:45;;;;;;;0.40;0.40;;;;;;;3.75;100.00;96750.41;5083970;28;20029;-68
2023/03/14 03:20:12;;;;;;;0.50;0.50;;;;;;;3.80;100.00;96763.06;5084170;28;20059;-68
2023/03/14 03:22:37;;;;;;;0.40;0.40;;;;;;;3.77;100.00;96766.56;5084223;28;20086;-69
2023/03/14 03:25:04;;;;;;;0.40;0.40;;;;;;;3.74;100.00;96768.44;5084038;28;20483;-68
2023/03/14 03:27:31;;;;;;;0.50;0.50;;;;;;;3.70;100.00;96753.16;5083570;28;20054;-68
2023/03/14 03:29:57;;;;;;;0.45;0.45;;;;;;;3.78;100.00;96755.41;5083884;28;20035;-68
2023/03/14 03:32:22;;;;;;;0.40;0.40;;;;;;;3.74;100.00;96764.13;5083990;28;20032;-69
2023/03/14 03:34:48;;;;;;;0.40;0.40;;;;;;;3.75;100.00;96759.81;5083914;28;20055;-68
2023/03/14 03:37:13;;;;;;;0.40;0.40;;;;;;;3.77;100.00;96768.31;5083760;28;20479;-68
2023/03/14 03:39:39;;;;;;;0.40;0.40;;;;;;;3.77;100.00;96771.69;5083791;28;20089;-68
2023/03/14 03:42:04;;;;;;;0.50;0.50;;;;;;;3.77;100.00;96783.69;5083525;28;20123;-68
2023/03/14 03:44:30;;;;;;;0.50;0.50;;;;;;;3.78;100.00;96782.78;5083893;28;20077;-67
2023/03/14 03:46:55;;;;;;;0.50;0.50;;;;;;;3.77;100.00;96794.78;5083707;28;20066;-69
2023/03/14 03:49:21;;;;;;;0.43;0.43;;;;;;;3.76;100.00;96795.69;5083810;28;20097;-68
2023/03/14 03:51:47;;;;;;;0.50;0.50;;;;;;;3.78;100.00;96795.63;5083391;28;20036;-68
2023/03/14 03:54:12;;;;;;;0.47;0.47;;;;;;;3.78;100.00;96790.50;5084736;28;20037;-69
2023/03/14 03:56:38;;;;;;;0.50;0.50;;;;;;;3.74;100.00;96791.53;5087576;28;20032;-69
2023/03/14 03:59:03;;;;;;;0.50;0.50;;;;;;;3.74;100.00;96783.81;5087558;28;20037;-69
2023/03/14 04:01:28;;;;;;;0.50;0.50;;;;;;;3.75;100.00;96783.75;5087692;28;20044;-69
2023/03/14 04:03:54;;;;;;;0.40;0.40;;;;;;;3.77;100.00;96783.69;5087539;28;20521;-68
2023/03/14 04:06:19;;;;;;;0.40;0.40;;;;;;;3.79;100.00;96787.88;5087537;28;20050;-69
2023/03/14 04:08:45;;;;;;;0.50;0.50;;;;;;;3.78;100.00;96785.34;5087373;28;20052;-68
2023/03/14 04:11:10;;;;;;;0.40;0.40;;;;;;;3.71;100.00;96769.38;5088683;28;20025;-70
2023/03/14 04:13:36;;;;;;;0.40;0.40;;;;;;;3.62;100.00;96764.59;5087808;28;20507;-69
2023/03/14 04:16:01;;;;;;;0.50;0.50;;;;;;;3.74;100.00;96791.53;5087317;28;20087;-69
2023/03/14 04:18:27;;;;;;;0.50;0.50;;;;;;;3.72;100.00;96784.69;5086893;28;20025;-69
2023/03/14 04:20:54;;;;;;;0.40;0.40;;;;;;;3.68;100.00;96790.84;5087382;28;20096;-69
2023/03/14 04:23:20;;;;;;;0.77;0.77;;;;;;;3.71;100.00;96795.88;5087141;28;20028;-69
2023/03/14 04:25:45;;;;;;;0.40;0.40;;;;;;;3.70;100.00;96790.78;5069084;28;20051;-68
2023/03/14 04:28:10;;;;;;;0.50;0.50;;;;;;;3.70;100.00;96795.94;5086699;28;20496;-68
2023/03/14 04:30:36;;;;;;;0.50;0.50;;;;;;;3.67;100.00;96788.34;5087105;28;20043;-69
2023/03/14 04:33:01;;;;;;;0.50;0.50;;;;;;;3.68;100.00;96797.69;5087039;28;20024;-69
2023/03/14 04:35:27;;;;;;;0.50;0.50;;;;;;;3.66;100.00;96802.09;5086959;28;20028;-69
2023/03/14 04:37:52;;;;;;;0.43;0.43;;;;;;;3.68;100.00;96803.69;5086815;28;20055;-70
2023/03/14 04:40:18;;;;;;;0.50;0.50;;;;;;;3.67;100.00;96808.88;5086859;28;20087;-70
2023/03/14 04:42:43;;;;;;;0.50;0.50;;;;;;;3.62;100.00;96813.34;5068552;28;20087;-69
2023/03/14 04:45:09;;;;;;;0.40;0.40;;;;;;;3.62;100.00;96809.06;5086887;28;20032;-69
2023/03/14 04:47:35;;;;;;;1.75;1.65;;;;;;;3.60;99.92;96823.66;5086478;28;20040;-69
2023/03/14 04:50:00;;;;;;;0.50;0.50;;;;;;;3.58;100.00;96820.31;5086548;28;20048;-70
2023/03/14 04:52:26;;;;;;;0.40;0.40;;;;;;;3.60;100.00;96818.53;5086785;28;20078;-69
2023/03/14 04:54:52;;;;;;;0.50;0.50;;;;;;;3.59;100.00;96827.13;5086591;28;20036;-70
2023/03/14 04:57:17;;;;;;;0.50;0.50;;;;;;;3.58;100.00;96828.84;5086136;28;20024;-68
2023/03/14 04:59:43;;;;;;;0.50;0.50;;;;;;;3.55;100.00;96834.09;5086468;28;20040;-69
2023/03/14 05:02:08;;;;;;;0.40;0.40;;;;;;;3.54;100.00;96835.00;5086328;28;20040;-67
2023/03/14 05:04:34;;;;;;;0.40;0.40;;;;;;;3.52;100.00;96836.78;5086426;28;20448;-67
2023/03/14 05:07:00;;;;;;;4.50;4.10;;;;;;;3.50;100.00;96825.72;5067550;28;20457;-67
2023/03/14 05:09:25;;;;;;;0.50;0.50;;;;;;;3.45;100.00;96830.22;5086477;28;20059;-66
2023/03/14 05:11:51;;;;;;;0.40;0.40;;;;;;;3.41;100.00;96834.63;5086140;28;20036;-65
2023/03/14 05:14:16;;;;;;;4.25;3.90;;;;;;;3.38;100.00;96836.44;5086397;28;20028;-65
2023/03/14 05:16:42;;;;;;;0.50;0.50;;;;;;;3.32;100.00;96840.91;5086288;28;20024;-64
2023/03/14 05:19:07;;;;;;;0.50;0.50;;;;;;;3.25;99.75;96843.75;5085980;28;20031;-65
2023/03/14 05:21:33;;;;;;;0.93;0.90;;;;;;;3.19;99.59;96850.78;5086062;28;20047;-65
2023/03/14 05:23:58;;;;;;;0.45;0.45;;;;;;;3.11;99.64;96847.66;5085971;28;20020;-64
2023/03/14 05:26:23;;;;;;;0.50;0.50;;;;;;;3.14;99.94;96844.13;5085833;28;20036;-66
2023/03/14 05:28:49;;;;;;;0.47;0.47;;;;;;;3.11;100.00;96852.78;5085731;28;20039;-65
2023/03/14 05:31:14;;;;;;;0.50;0.50;;;;;;;3.09;100.00;96855.41;5085977;28;20024;-65
2023/03/14 05:33:40;;;;;;;0.50;0.50;;;;;;;3.12;100.00;96856.16;5085736;28;20111;-65
2023/03/14 05:36:06;;;;;;;0.50;0.50;;;;;;;3.13;100.00;96848.41;5085581;28;20032;-64
2023/03/14 05:38:31;;;;;;;0.50;0.50;;;;;;;3.08;100.00;96843.47;5085557;28;20438;-66
2023/03/14 05:40:56;;;;;;;0.50;0.50;;;;;;;3.06;100.00;96862.34;5085580;28;20029;-65
2023/03/14 05:43:22;;;;;;;0.50;0.50;;;;;;;3.07;100.00;96856.31;5085508;28;20032;-66
2023/03/14 05:45:48;;;;;;;0.50;0.50;;;;;;;3.07;100.00;96869.16;5085603;28;20373;-66
2023/03/14 05:48:13;;;;;;;0.77;0.75;;;;;;;3.04;100.00;96859.00;5085297;28;20051;-66
2023/03/14 05:50:38;;;;;;;0.40;0.40;;;;;;;3.09;100.00;96860.53;5085472;28;20127;-67
2023/03/14 05:53:04;;;;;;;0.40;0.40;;;;;;;3.05;100.00;96858.13;5085446;28;20035;-67
2023/03/14 05:55:29;;;;;;;0.40;0.40;;;;;;;3.04;100.00;96861.56;5085352;28;20036;-67
2023/03/14 05:57:55;;;;;;;0.40;0.40;;;;;;;3.02;100.00;96861.63;5085162;28;20166;-67
2023/03/14 06:00:21;;;;;;;1.23;1.23;;;;;;;3.00;100.00;96860.00;5085437;28;20252;-68
2023/03/14 06:02:47;;;;;;;0.40;0.40;;;;;;;3.04;100.00;96861.56;5085244;28;20032;-67
2023/03/14 06:05:12;;;;;;;0.50;0.50;;;;;;;3.04;100.00;96870.09;5085299;28;20029;-67
2023/03/14 06:07:38;;;;;;;0.43;0.43;;;;;;;3.04;100.00;96866.69;5085529;28;20025;-66
2023/03/14 06:10:04;;;;;;;0.50;0.50;;;;;;;3.04;100.00;96874.38;5085397;28;20063;-66
2023/03/14 06:12:30;;;;;;;0.50;0.50;;;;;;;3.03;100.00;96872.72;5085526;28;20024;-67
2023/03/14 06:14:55;;;;;;;0.50;0.50;;;;;;;2.99;100.00;96864.28;5085182;28;20086;-67
2023/03/14 06:17:21;;;;;;;0.50;0.50;;;;;;;3.03;100.00;96882.97;5066873;28;20040;-66
2023/03/14 06:19:46;;;;;;;0.40;0.40;;;;;;;3.03;100.00;96888.94;5084889;28;20045;-65
2023/03/14 06:22:11;;;;;;;0.50;0.50;;;;;;;3.05;100.00;96889.69;5084844;28;20035;-67
2023/03/14 06:24:37;;;;;;;0.40;0.40;;;;;;;3.04;100.00;96882.91;5085054;28;20032;-68
2023/03/14 06:27:02;;;;;;;0.50;0.50;;;;;;;3.10;100.00;96892.09;5084854;28;20028;-68
2023/03/14 06:29:29;;;;;;;0.40;0.40;;;;;;;3.10;100.00;96887.81;5084791;28;20043;-68
2023/03/14 06:31:55;;;;;;;0.47;0.47;;;;;;;3.13;100.00;96891.19;5084807;28;20058;-69
2023/03/14 06:34:21;;;;;;;0.50;0.50;;;;;;;3.12;100.00;96876.66;5084602;28;20024;-69
2023/03/14 06:36:46;;;;;;;0.50;0.50;;;;;;;3.23;100.00;96892.50;5084612;28;20051;-68
2023/03/14 06:39:12;;;;;;;0.50;0.50;;;;;;;3.24;100.00;96895.91;5084469;28;20028;-68
2023/03/14 06:41:37;;;;;;;0.50;0.50;;;;;;;3.26;100.00;96901.84;5084309;28;20070;-68
2023/03/14 06:44:03;;;;;;;0.50;0.50;;;;;;;3.26;100.00;96905.22;5084598;28;20056;-68
2023/03/14 06:46:29;;;;;;;0.50;0.50;;;;;;;3.27;100.00;96900.94;5084685;28;20033;-68
2023/03/14 06:48:54;;;;;;;0.50;0.50;;;;;;;3.30;100.00;96917.06;5084623;28;20365;-68
2023/03/14 06:51:19;;;;;;;0.45;0.45;;;;;;;3.32;100.00;96917.00;5084435;28;20098;-69
2023/03/14 06:53:45;;;;;;;0.50;0.50;;;;;;;3.34;100.00;96918.59;5084599;28;20036;-68
2023/03/14 06:56:11;;;;;;;0.50;0.50;;;;;;;3.32;100.00;96932.38;5084384;28;20516;-68
2023/03/14 06:58:37;;;;;;;0.43;0.43;;;;;;;3.27;100.00;96921.44;5084298;28;20025;-68
2023/03/14 07:01:03;;;;;;;0.47;0.47;;;;;;;3.31;100.00;96931.53;5066253;28;20033;-68
2023/03/14 07:03:28;;;;;;;0.43;0.43;;;;;;;3.32;100.00;96933.19;5084321;28;20036;-68
2023/03/14 07:05:54;;;;;;;0.50;0.50;;;;;;;3.33;100.00;96934.06;5084558;28;20037;-67
2023/03/14 07:08:20;;;;;;;0.50;0.50;;;;;;;3.35;100.00;96933.09;5084325;28;20107;-68
2023/03/14 07:10:45;;;;;;;0.40;0.40;;;;;;;3.39;100.00;96943.25;5084760;28;20040;-67
2023/03/14 07:13:11;;;;;;;0.40;0.40;;;;;;;3.40;100.00;96938.09;5066070;28;20036;-67
2023/03/14 07:15:36;;;;;;;0.50;0.50;;;;;;;3.42;100.00;96946.53;5084395;28;20028;-67
2023/03/14 07:18:02;;;;;;;0.40;0.40;;;;;;;3.39;100.00;96946.66;5084238;28;20032;-68
2023/03/14 07:20:28;;;;;;;0.50;0.50;;;;;;;3.42;100.00;96958.56;5084182;28;20028;-69
2023/03/14 07:22:54;;;;;;;0.50;0.50;;;;;;;3.40;100.00;96968.84;5084347;28;20044;-67
2023/03/14 07:25:19;;;;;;;0.40;0.40;;;;;;;3.38;100.00;96962.94;5084234;28;20020;-67
2023/03/14 07:27:46;;;;;;;0.45;0.45;;;;;;;3.39;100.00;96963.75;5083933;28;20024;-70
2023/03/14 07:30:12;;;;;;;0.40;0.40;;;;;;;3.37;100.00;96963.00;5089763;28;20158;-67
2023/03/14 07:32:38;;;;;;;0.50;0.50;;;;;;;3.37;100.00;96966.38;5090793;28;20032;-68
2023/03/14 07:35:04;;;;;;;0.50;0.50;;;;;;;3.39;100.00;96963.75;5090870;28;20058;-67
2023/03/14 07:37:29;;;;;;;0.40;0.40;;;;;;;3.35;100.00;96963.03;5090707;28;20141;-68
2023/03/14 07:39:55;;;;;;;0.50;0.50;;;;;;;3.32;100.00;96968.28;5090608;28;20145;-67
2023/03/14 07:42:20;;;;;;;0.40;0.40;;;;;;;3.32;100.00;96966.53;5090516;28;20028;-67
2023/03/14 07:44:46;;;;;;;0.40;0.40;;;;;;;3.41;100.00;96962.84;5090792;28;20094;-67
2023/03/14 07:47:11;;;;;;;0.50;0.50;;;;;;;3.41;100.00;96957.69;5090711;28;20028;-67
2023/03/14 07:49:37;;;;;;;0.45;0.45;;;;;;;3.59;100.00;96978.47;5090493;28;20037;-68
2023/03/14 07:52:02;;;;;;;0.40;0.40;;;;;;;3.68;100.00;96977.28;5070554;28;20041;-69
2023/03/14 07:54:28;;;;;;;0.50;0.50;;;;;;;3.78;100.00;96970.09;5070393;28;20041;-67
2023/03/14 07:56:53;;;;;;;0.47;0.47;;;;;;;3.89;100.00;96967.97;5070316;28;20096;-67
2023/03/14 07:59:19;;;;;;;0.40;0.40;;;;;;;3.94;100.00;96978.06;5070610;28;20088;-67
2023/03/14 08:01:44;;;;;;;0.43;0.43;;;;;;;3.97;100.00;96978.81;5070670;28;20041;-67
2023/03/14 08:04:10;;;;;;;0.40;0.40;;;;;;;4.03;100.00;96980.28;5070580;28;20033;-68
2023/03/14 08:06:36;;;;;;;0.40;0.40;;;;;;;4.04;100.00;96983.72;5070616;28;20039;-67
2023/03/14 08:09:03;;;;;;;0.43;0.43;;;;;;;4.09;100.00;97000.59;5070178;28;20111;-68
2023/03/14 08:11:28;;;;;;;0.40;0.40;;;;;;;4.17;100.00;96991.78;5070338;28;20432;-68
2023/03/14 08:13:54;;;;;;;0.50;0.50;;;;;;;4.24;100.00;96994.94;5070317;28;20037;-69
2023/03/14 08:16:19;;;;;;;0.50;0.50;;;;;;;4.40;100.00;97003.75;5070276;28;20043;-69
2023/03/14 08:18:45;;;;;;;0.40;0.40;;;;;;;4.52;100.00;97006.75;5070299;28;20056;-70
2023/03/14 08:21:11;;;;;;;0.40;0.40;;;;;;;4.58;100.00;97007.31;5070519;28;20100;-69
2023/03/14 08:23:36;;;;;;;0.50;0.50;;;;;;;4.62;100.00;97002.09;5070419;28;20028;-69
2023/03/14 08:26:02;;;;;;;0.40;0.40;;;;;;;4.80;100.00;97016.78;5070383;28;20106;-69
2023/03/14 08:28:30;;;;;;;0.40;0.40;;;;;;;4.99;100.00;97015.19;5069926;28;20123;-69
2023/03/14 08:30:57;;;;;;;0.40;0.40;;;;;;;5.16;100.00;97002.47;5070336;28;20033;-70
2023/03/14 08:33:23;;;;;;;0.40;0.40;;;;;;;5.39;100.00;97000.69;5070102;28;20477;-70
2023/03/14 08:35:52;;;;;;;0.40;0.40;;;;;;;5.51;100.00;97003.66;5070032;28;20029;-70
2023/03/14 08:38:18;;;;;;;0.40;0.40;;;;;;;5.55;99.63;97013.75;5070043;28;20037;-71
2023/03/14 08:40:43;;;;;;;0.40;0.40;;;;;;;5.58;99.31;97000.75;5068448;28;20068;-73
2023/03/14 08:43:08;;;;;;;0.40;0.40;;;;;;;5.44;98.52;97016.78;5066989;28;20040;-74
2023/03/14 08:45:34;;;;;;;0.40;0.40;;;;;;;5.28;97.99;97020.88;5066817;28;20033;-75
2023/03/14 08:47:59;;;;;;;0.40;0.40;;;;;;;5.21;98.29;97025.44;5066781;28;20051;-76
2023/03/14 08:50:25;;;;;;;0.40;0.40;;;;;;;5.21;98.71;97036.56;5073148;28;20075;-74
2023/03/14 08:52:50;;;;;;;0.68;0.68;;;;;;;5.55;100.00;97034.31;5086816;28;20071;-73
2023/03/14 08:55:16;;;;;;;0.40;0.40;;;;;;;6.05;100.00;97034.78;5086845;28;20036;-72
2023/03/14 08:57:42;;;;;;;0.50;0.50;;;;;;;6.31;100.00;97037.94;5086359;28;20111;-73
2023/03/14 09:00:14;;;;;;;0.40;0.40;;;;;;;6.40;100.00;97038.44;5086689;28;20116;-71
2023/03/14 09:02:39;;;;;;;0.40;0.40;;;;;;;6.24;99.83;97041.72;5086839;28;20063;-73
2023/03/14 09:05:05;;;;;;;0.40;0.40;;;;;;;6.11;99.39;97054.28;5086794;28;20037;-71
2023/03/14 09:07:31;;;;;;;0.40;0.40;;;;;;;6.07;99.81;97039.91;5086904;28;20029;-71
2023/03/14 09:09:56;;;;;;;0.40;0.40;;;;;;;6.05;100.00;97046.84;5086707;28;20029;-70
2023/03/14 09:12:22;;;;;;;0.40;0.40;;;;;;;6.14;100.00;97046.44;5086379;28;20033;-70
2023/03/14 09:14:47;;;;;;;0.40;0.40;;;;;;;6.20;99.84;97056.47;5086943;28;20023;-70
2023/03/14 09:17:12;;;;;;;0.40;0.40;;;;;;;6.29;99.62;97055.19;5087088;28;20028;-70
2023/03/14 09:19:38;;;;;;;0.50;0.50;;;;;;;6.34;99.27;97059.31;5086278;28;20036;-70
2023/03/14 09:22:03;;;;;;;0.40;0.40;;;;;;;6.34;98.64;97067.91;5086536;28;20035;-70
2023/03/14 09:24:29;;;;;;;0.40;0.40;;;;;;;6.37;98.49;97074.63;5086533;28;20056;-69
2023/03/14 09:26:58;;;;;;;0.40;0.40;;;;;;;6.32;98.40;97073.13;5086039;28;20385;-68
2023/03/14 09:29:24;;;;;;;0.40;0.40;;;;;;;6.35;98.60;97077.28;5086091;28;20029;-68
2023/03/14 09:31:52;;;;;;;0.40;0.40;;;;;;;6.52;98.60;97078.25;5086203;28;20032;-68
2023/03/14 09:34:18;;;;;;;0.40;0.40;;;;;;;6.93;99.26;97069.50;5086312;28;20032;-68
2023/03/14 09:36:44;;;;;;;0.50;0.50;;;;;;;8.12;99.13;97077.44;5086036;28;20431;-69
2023/03/14 09:39:10;;;;;;;0.40;0.40;;;;;;;9.17;96.66;97077.06;5085984;28;20040;-69
2023/03/14 09:41:40;;;;;;;0.47;0.47;;;;;;;9.61;94.69;97084.97;5068004;28;20028;-69
2023/03/14 09:44:15;;;;;;;0.40;0.40;;;;;;;10.15;94.71;97093.91;5085777;28;20048;-68
2023/03/14 09:46:45;;;;;;;0.30;0.30;;;;;;;10.52;93.31;97103.84;5085853;28;20054;-67
2023/03/14 09:49:19;;;;;;;0.40;0.40;;;;;;;10.73;91.68;97103.44;5085711;28;20070;-67
2023/03/14 09:51:49;;;;;;;0.40;0.40;;;;;;;10.85;90.16;97110.44;5085146;28;20098;-68
2023/03/14 09:54:32;;;;;;;0.40;0.40;;;;;;;10.93;87.97;97116.94;5085767;28;20052;-68
2023/03/14 09:56:58;;;;;;;0.40;0.40;;;;;;;10.49;86.09;97124.78;5085403;28;20059;-68
2023/03/14 09:59:24;;;;;;;0.40;0.40;;;;;;;10.08;85.97;97116.75;5085284;28;20029;-68
2023/03/14 10:01:49;;;;;;;0.40;0.40;;;;;;;9.47;84.85;97117.69;5085619;28;20033;-68
2023/03/14 10:04:20;;;;;;;0.40;0.40;;;;;;;8.95;85.12;97127.41;5085511;28;20035;-68
2023/03/14 10:06:47;;;;;;;0.40;0.40;;;;;;;8.92;86.58;97118.09;5085432;28;20028;-69
2023/03/14 10:09:25;;;;;;;0.40;0.40;;;;;;;9.16;85.24;97125.41;5085319;28;20087;-69
2023/03/14 10:11:56;;;;;;;39.45;3.92;;;;;;;9.91;82.38;97128.97;5085446;28;20035;-69
2023/03/14 10:14:33;;;;;;;0.50;0.50;;;;;;;10.20;82.14;97148.91;5085343;28;20024;-68
2023/03/14 10:17:06;;;;;;;0.40;0.40;;;;;;;10.64;81.25;97154.13;5085454;28;20760;-69
2023/03/14 10:19:31;;;;;;;0.40;0.40;;;;;;;10.65;78.18;97163.59;5086047;28;20036;-69
2023/03/14 10:22:01;;;;;;;0.30;0.30;;;;;;;10.59;78.53;97159.59;5086289;28;20055;-69
2023/03/14 10:24:31;;;;;;;0.40;0.40;;;;;;;10.77;77.36;97168.00;5085314;28;20029;-69
2023/03/14 10:27:05;;;;;;;0.30;0.30;;;;;;;10.63;77.18;97175.81;5084886;28;20036;-69
2023/03/14 10:29:33;;;;;;;0.40;0.40;;;;;;;10.40;75.86;97173.66;5085057;28;20024;-69
2023/03/14 10:32:06;;;;;;;0.30;0.30;;;;;;;10.19;75.85;97187.88;5085113;28;20038;-69
2023/03/14 10:34:35;;;;;;;0.40;0.40;;;;;;;9.87;77.12;97184.47;5085123;28;20043;-69
2023/03/14 10:37:27;;;;;;;0.40;0.40;;;;;;;9.48;76.59;97186.66;5084979;28;20028;-68
2023/03/14 10:39:55;;;;;;;0.40;0.40;;;;;;;9.05;76.23;97200.22;5081132;28;20036;-67
2023/03/14 10:42:31;;;;;;;0.30;0.30;;;;;;;8.57;75.65;97200.97;5084725;28;20354;-69
2023/03/14 10:45:02;;;;;;;0.38;0.38;;;;;;;8.41;78.21;97206.06;5084849;28;20036;-69
2023/03/14 10:47:28;;;;;;;0.83;0.83;;;;;;;9.03;78.44;97212.38;5084702;28;20024;-69
2023/03/14 10:49:55;;;;;;;0.40;0.40;;;;;;;9.63;74.67;97210.03;5084360;28;20261;-68
2023/03/14 10:52:29;;;;;;;0.40;0.40;;;;;;;10.14;74.76;97214.09;5084882;28;20040;-69
2023/03/14 10:55:11;;;;;;;0.30;0.30;;;;;;;11.06;69.87;97205.22;5084685;28;20040;-69
2023/03/14 10:57:43;;;;;;;0.30;0.30;;;;;;;11.68;67.98;97219.53;5084351;28;20033;-68
2023/03/14 11:00:22;;;;;;;0.30;0.30;;;;;;;12.26;63.71;97221.03;5084545;28;20123;-68
2023/03/14 11:03:11;;;;;;;0.25;0.25;;;;;;;12.79;63.77;97224.47;5084606;28;20047;-68
2023/03/14 11:06:04;;;;;;;0.30;0.30;;;;;;;13.25;63.18;97217.84;5082869;28;20032;-68
2023/03/14 11:08:57;;;;;;;0.30;0.30;;;;;;;13.49;61.23;97233.50;5084447;28;20040;-68
2023/03/14 11:11:26;;;;;;;0.30;0.30;;;;;;;13.95;64.95;97227.66;5084440;28;20048;-67
2023/03/14 11:13:52;;;;;;;0.30;0.30;;;;;;;14.23;63.49;97230.84;5084174;28;20199;-67
2023/03/14 11:16:29;;;;;;;0.30;0.30;;;;;;;14.16;60.94;97238.31;5084277;28;20096;-68
2023/03/14 11:19:04;;;;;;;0.30;0.30;;;;;;;14.05;57.97;97246.94;5084004;28;20044;-68
2023/03/14 11:21:46;;;;;;;0.30;0.30;;;;;;;13.97;57.07;97254.47;5084557;28;20104;-68
2023/03/14 11:24:44;;;;;;;0.35;0.35;;;;;;;13.90;57.27;97271.53;5084306;28;20043;-72
2023/03/14 11:27:36;;;;;;;0.30;0.30;;;;;;;12.71;57.10;97274.47;5083908;28;20051;-69
2023/03/14 11:30:25;;;;;;;0.40;0.40;;;;;;;11.49;58.33;97277.88;5084199;28;20036;-68
2023/03/14 11:33:04;;;;;;;0.38;0.38;;;;;;;11.07;60.80;97277.81;5084217;28;20058;-68
2023/03/14 11:36:08;;;;;;;0.40;0.40;;;;;;;10.90;60.35;97284.88;5083814;28;20115;-67